createdAt,value
2018-05-06T00:02:06.734Z,12.80
2018-05-06T00:04:34.190Z,12.90
2018-05-06T00:07:01.668Z,12.80
2018-05-06T00:09:29.157Z,12.90
2018-05-06T00:11:56.677Z,12.80
2018-05-06T00:14:24.140Z,12.80
2018-05-06T00:16:51.600Z,12.70
2018-05-06T00:19:19.056Z,12.70
2018-05-06T00:21:46.526Z,12.60
2018-05-06T00:24:14.000Z,12.60
2018-05-06T00:26:41.461Z,12.60
2018-05-06T00:29:08.937Z,12.50
2018-05-06T00:31:37.188Z,12.40
2018-05-06T00:34:04.757Z,12.40
2018-05-06T00:36:32.213Z,12.30
2018-05-06T00:38:59.692Z,12.30
2018-05-06T00:41:27.933Z,12.30
2018-05-06T00:43:55.389Z,12.30
2018-05-06T00:46:22.950Z,12.30
2018-05-06T00:48:50.337Z,12.30
2018-05-06T00:51:18.562Z,12.30
2018-05-06T00:53:46.036Z,12.30
2018-05-06T00:56:13.488Z,12.30
2018-05-06T00:58:40.954Z,12.30
2018-05-06T01:01:08.425Z,12.20
2018-05-06T01:03:36.665Z,12.10
2018-05-06T01:06:04.117Z,12.10
2018-05-06T01:08:31.599Z,12.00
2018-05-06T01:10:59.052Z,12.00
2018-05-06T01:13:28.021Z,11.90
2018-05-06T01:15:55.499Z,11.80
2018-05-06T01:18:22.966Z,11.80
2018-05-06T01:20:50.413Z,11.80
2018-05-06T01:23:18.672Z,11.70
2018-05-06T01:25:46.141Z,11.70
2018-05-06T01:28:13.604Z,11.60
2018-05-06T01:30:41.085Z,11.60
2018-05-06T01:33:09.308Z,11.50
2018-05-06T01:35:36.779Z,11.50
2018-05-06T01:38:04.246Z,11.50
2018-05-06T01:40:33.208Z,11.40
2018-05-06T01:43:00.696Z,11.40
2018-05-06T01:45:28.153Z,11.40
2018-05-06T01:47:55.608Z,11.30
2018-05-06T01:50:23.108Z,11.30
2018-05-06T01:52:50.725Z,11.20
2018-05-06T01:55:18.946Z,11.10
2018-05-06T01:57:46.441Z,11.10
2018-05-06T02:00:13.893Z,11.10
2018-05-06T02:02:41.349Z,11.10
2018-05-06T02:05:08.821Z,11.10
2018-05-06T02:07:36.335Z,11.00
2018-05-06T02:10:03.788Z,10.90
2018-05-06T02:12:31.266Z,10.90
2018-05-06T02:14:58.728Z,10.90
2018-05-06T02:17:26.183Z,10.90
2018-05-06T02:19:53.676Z,10.90
2018-05-06T02:22:21.906Z,10.90
2018-05-06T02:24:49.361Z,10.90
2018-05-06T02:27:16.839Z,10.90
2018-05-06T02:29:44.305Z,10.90
2018-05-06T02:32:11.784Z,11.00
2018-05-06T02:34:40.016Z,10.80
2018-05-06T02:37:07.478Z,10.80
2018-05-06T02:39:34.966Z,10.70
2018-05-06T02:42:02.428Z,10.70
2018-05-06T02:44:30.649Z,10.60
2018-05-06T02:46:58.122Z,10.60
2018-05-06T02:49:25.577Z,10.70
2018-05-06T02:51:53.052Z,10.60
2018-05-06T02:54:20.511Z,10.60
2018-05-06T02:56:47.975Z,10.60
2018-05-06T02:59:15.441Z,10.50
2018-05-06T03:01:43.671Z,10.50
2018-05-06T03:04:11.136Z,10.50
2018-05-06T03:06:38.596Z,10.40
2018-05-06T03:09:06.056Z,10.40
2018-05-06T03:11:33.542Z,10.40
2018-05-06T03:14:01.760Z,10.20
2018-05-06T03:16:29.221Z,10.20
2018-05-06T03:18:56.698Z,10.20
2018-05-06T03:21:24.155Z,10.00
2018-05-06T03:23:51.777Z,10.00
2018-05-06T03:26:19.236Z,10.10
2018-05-06T03:28:46.705Z,10.00
2018-05-06T03:31:14.182Z,10.00
2018-05-06T03:33:41.646Z,9.90
2018-05-06T03:36:09.121Z,9.80
2018-05-06T03:38:37.332Z,9.80
2018-05-06T03:41:04.893Z,9.80
2018-05-06T03:43:32.369Z,9.80
2018-05-06T03:45:59.821Z,9.80
2018-05-06T03:48:27.364Z,9.70
2018-05-06T03:50:54.841Z,9.70
2018-05-06T03:53:22.293Z,9.70
2018-05-06T03:55:59.369Z,9.60
2018-05-06T03:58:38.661Z,9.60
2018-05-06T04:01:06.892Z,9.60
2018-05-06T04:03:34.356Z,9.60
2018-05-06T04:06:01.816Z,9.70
2018-05-06T04:08:30.139Z,9.70
2018-05-06T04:10:57.601Z,9.70
2018-05-06T04:13:25.060Z,9.70
2018-05-06T04:15:52.524Z,9.70
2018-05-06T04:18:20.008Z,9.70
2018-05-06T04:20:47.460Z,9.70
2018-05-06T04:23:14.917Z,9.80
2018-05-06T04:25:42.394Z,9.90
2018-05-06T04:28:09.846Z,9.90
2018-05-06T04:30:37.318Z,10.00
2018-05-06T04:33:04.788Z,10.00
2018-05-06T04:35:33.013Z,10.10
2018-05-06T04:38:00.493Z,10.10
2018-05-06T04:40:27.952Z,10.20
2018-05-06T04:42:55.404Z,10.30
2018-05-06T04:45:22.889Z,10.30
2018-05-06T04:47:51.124Z,10.50
2018-05-06T04:50:18.589Z,10.40
2018-05-06T04:52:46.083Z,10.50
2018-05-06T04:55:14.308Z,10.70
2018-05-06T04:57:41.764Z,10.70
2018-05-06T05:00:09.248Z,11.00
2018-05-06T05:02:37.481Z,12.00
2018-05-06T05:05:04.950Z,12.00
2018-05-06T05:07:32.485Z,13.10
2018-05-06T05:10:00.045Z,14.40
2018-05-06T05:12:27.504Z,15.40
2018-05-06T05:14:54.986Z,16.30
2018-05-06T05:17:22.448Z,16.90
2018-05-06T05:19:49.905Z,17.30
2018-05-06T05:22:17.397Z,17.80
2018-05-06T05:24:45.628Z,17.60
2018-05-06T05:27:13.089Z,17.60
2018-05-06T05:29:40.677Z,17.40
2018-05-06T05:32:08.900Z,18.40
2018-05-06T05:34:36.374Z,18.40
2018-05-06T05:37:03.861Z,18.90
2018-05-06T05:39:31.431Z,19.30
2018-05-06T05:41:59.648Z,17.40
2018-05-06T05:44:27.132Z,17.30
2018-05-06T05:46:54.597Z,16.50
2018-05-06T05:49:22.079Z,15.90
2018-05-06T05:51:50.313Z,15.30
2018-05-06T05:54:17.764Z,15.30
2018-05-06T05:56:45.296Z,15.50
2018-05-06T05:59:12.749Z,15.70
2018-05-06T06:01:40.210Z,15.60
2018-05-06T06:04:07.711Z,16.30
2018-05-06T06:06:35.156Z,16.30
2018-05-06T06:09:02.623Z,15.90
2018-05-06T06:11:30.105Z,15.70
2018-05-06T06:13:58.348Z,15.20
2018-05-06T06:16:25.815Z,15.20
2018-05-06T06:18:53.298Z,14.90
2018-05-06T06:21:21.611Z,14.80
2018-05-06T06:23:49.070Z,14.70
2018-05-06T06:26:16.541Z,14.60
2018-05-06T06:28:44.001Z,14.60
2018-05-06T06:31:11.460Z,14.70
2018-05-06T06:33:38.945Z,14.80
2018-05-06T06:36:07.217Z,15.40
2018-05-06T06:38:35.534Z,15.40
2018-05-06T06:41:03.094Z,15.40
2018-05-06T06:43:30.654Z,15.50
2018-05-06T06:45:58.113Z,15.50
2018-05-06T06:48:25.609Z,15.60
2018-05-06T06:50:53.069Z,15.40
2018-05-06T06:53:20.578Z,15.40
2018-05-06T06:55:48.109Z,15.40
2018-05-06T06:58:15.512Z,15.40
2018-05-06T07:00:42.969Z,15.40
2018-05-06T07:03:10.461Z,15.50
2018-05-06T07:05:37.917Z,15.50
2018-05-06T07:08:06.144Z,15.80
2018-05-06T07:10:33.626Z,15.70
2018-05-06T07:13:01.095Z,15.80
2018-05-06T07:15:28.560Z,15.80
2018-05-06T07:17:56.028Z,15.90
2018-05-06T07:20:24.253Z,16.10
2018-05-06T07:22:51.725Z,16.00
2018-05-06T07:25:19.198Z,16.10
2018-05-06T07:27:46.649Z,16.20
2018-05-06T07:30:14.133Z,16.30
2018-05-06T07:32:42.393Z,16.50
2018-05-06T07:35:09.864Z,16.50
2018-05-06T07:37:38.169Z,16.90
2018-05-06T07:40:05.625Z,16.90
2018-05-06T07:42:33.104Z,17.00
2018-05-06T07:45:00.576Z,17.10
2018-05-06T07:47:28.046Z,17.00
2018-05-06T07:49:55.526Z,17.10
2018-05-06T07:52:23.749Z,17.20
2018-05-06T07:54:51.218Z,17.20
2018-05-06T07:57:18.842Z,17.20
2018-05-06T07:59:46.300Z,17.30
2018-05-06T08:02:13.761Z,17.40
2018-05-06T08:04:41.262Z,17.50
2018-05-06T08:07:08.712Z,17.70
2018-05-06T08:09:36.184Z,17.80
2018-05-06T08:12:04.451Z,18.20
2018-05-06T08:14:31.910Z,18.10
2018-05-06T08:16:59.379Z,18.20
2018-05-06T08:19:27.640Z,18.20
2018-05-06T08:21:55.136Z,18.10
2018-05-06T08:24:22.560Z,18.20
2018-05-06T08:26:50.812Z,18.30
2018-05-06T08:29:18.265Z,18.20
2018-05-06T08:31:45.745Z,18.20
2018-05-06T08:34:13.209Z,18.40
2018-05-06T08:36:41.426Z,18.70
2018-05-06T08:39:08.909Z,18.60
2018-05-06T08:41:36.377Z,18.80
2018-05-06T08:44:03.845Z,19.00
2018-05-06T08:46:31.331Z,19.10
2018-05-06T08:48:59.549Z,19.40
2018-05-06T08:51:27.043Z,19.40
2018-05-06T08:53:55.296Z,19.70
2018-05-06T08:56:22.752Z,19.60
2018-05-06T08:58:50.324Z,19.80
2018-05-06T09:01:17.784Z,19.90
2018-05-06T09:03:46.022Z,20.40
2018-05-06T09:06:13.494Z,20.50
2018-05-06T09:08:40.958Z,20.90
2018-05-06T09:11:08.461Z,21.20
2018-05-06T09:13:35.972Z,21.30
2018-05-06T09:16:03.449Z,21.30
2018-05-06T09:18:31.682Z,22.00
2018-05-06T09:20:59.158Z,21.90
2018-05-06T09:23:28.137Z,24.10
2018-05-06T09:25:55.601Z,24.10
2018-05-06T09:28:23.069Z,25.50
2018-05-06T09:30:50.625Z,26.70
2018-05-06T09:33:18.093Z,27.40
2018-05-06T09:35:46.344Z,28.10
2018-05-06T09:38:13.805Z,28.10
2018-05-06T09:40:41.270Z,27.80
2018-05-06T09:43:08.746Z,27.80
2018-05-06T09:45:36.964Z,27.80
2018-05-06T09:48:04.443Z,27.80
2018-05-06T09:50:31.912Z,28.10
2018-05-06T09:52:59.373Z,28.50
2018-05-06T09:55:26.849Z,28.90
2018-05-06T09:57:55.072Z,28.30
2018-05-06T10:00:22.536Z,28.30
2018-05-06T10:02:50.174Z,28.70
2018-05-06T10:05:17.651Z,28.70
2018-05-06T10:07:45.184Z,29.20
2018-05-06T10:10:12.744Z,29.60
2018-05-06T10:12:40.198Z,29.40
2018-05-06T10:15:07.758Z,29.30
2018-05-06T10:17:35.236Z,29.20
2018-05-06T10:20:02.686Z,29.70
2018-05-06T10:22:30.162Z,29.30
2018-05-06T10:24:57.647Z,29.90
2018-05-06T10:27:25.101Z,29.80
2018-05-06T10:29:53.337Z,30.50
2018-05-06T10:32:20.801Z,30.40
2018-05-06T10:34:50.766Z,30.70
2018-05-06T10:37:19.000Z,30.50
2018-05-06T10:39:48.524Z,30.40
2018-05-06T10:42:17.903Z,30.90
2018-05-06T10:44:46.380Z,30.60
2018-05-06T10:47:14.424Z,30.60
2018-05-06T10:49:43.104Z,30.60
2018-05-06T10:52:10.580Z,30.80
2018-05-06T10:54:38.630Z,31.10
2018-05-06T10:57:06.101Z,31.90
2018-05-06T10:59:35.425Z,31.90
2018-05-06T11:02:04.401Z,31.50
2018-05-06T11:04:31.881Z,31.70
2018-05-06T11:07:00.603Z,31.50
2018-05-06T11:09:29.417Z,31.30
2018-05-06T11:11:56.897Z,31.30
2018-05-06T11:14:25.344Z,30.90
2018-05-06T11:16:53.831Z,30.10
2018-05-06T11:19:22.133Z,30.20
2018-05-06T11:21:51.501Z,30.30
2018-05-06T11:24:18.998Z,30.60
2018-05-06T11:26:46.473Z,30.80
2018-05-06T11:29:13.971Z,31.40
2018-05-06T11:31:41.437Z,31.20
2018-05-06T11:34:08.921Z,31.50
2018-05-06T11:36:38.641Z,31.70
2018-05-06T11:39:09.506Z,31.70
2018-05-06T11:41:37.986Z,31.80
2018-05-06T11:44:06.292Z,31.40
2018-05-06T11:46:36.533Z,31.30
2018-05-06T11:49:04.000Z,31.20
2018-05-06T11:51:32.291Z,31.40
2018-05-06T11:53:59.782Z,31.50
2018-05-06T11:56:28.017Z,31.20
2018-05-06T11:58:57.409Z,31.20
2018-05-06T12:01:25.758Z,31.00
2018-05-06T12:03:55.633Z,31.50
2018-05-06T12:06:23.997Z,31.30
2018-05-06T12:08:52.002Z,31.20
2018-05-06T12:11:19.512Z,31.50
2018-05-06T12:13:47.641Z,31.70
2018-05-06T12:16:15.937Z,31.80
2018-05-06T12:18:48.449Z,31.80
2018-05-06T12:21:18.434Z,31.70
2018-05-06T12:23:46.580Z,31.70
2018-05-06T12:26:16.441Z,31.90
2018-05-06T12:28:44.827Z,30.50
2018-05-06T12:31:15.440Z,30.40
2018-05-06T12:33:49.764Z,30.50
2018-05-06T12:36:19.450Z,30.70
2018-05-06T12:38:48.141Z,30.50
2018-05-06T12:41:15.596Z,30.70
2018-05-06T12:43:43.550Z,31.00
2018-05-06T12:46:11.896Z,30.60
2018-05-06T12:48:40.616Z,30.00
2018-05-06T12:51:08.137Z,30.20
2018-05-06T12:53:36.432Z,30.20
2018-05-06T12:56:03.911Z,30.20
2018-05-06T12:58:33.082Z,30.00
2018-05-06T13:01:01.362Z,30.10
2018-05-06T13:03:28.838Z,30.20
2018-05-06T13:05:57.615Z,30.00
2018-05-06T13:08:25.101Z,29.70
2018-05-06T13:10:52.592Z,29.50
2018-05-06T13:13:23.453Z,28.90
2018-05-06T13:15:52.412Z,28.90
2018-05-06T13:18:20.643Z,28.70
2018-05-06T13:20:48.127Z,28.70
2018-05-06T13:23:15.577Z,29.00
2018-05-06T13:25:43.040Z,29.10
2018-05-06T13:28:10.525Z,29.00
2018-05-06T13:30:38.822Z,28.70
2018-05-06T13:33:06.284Z,28.70
2018-05-06T13:35:33.761Z,28.40
2018-05-06T13:38:01.257Z,28.40
2018-05-06T13:40:29.511Z,28.50
2018-05-06T13:42:56.994Z,28.50
2018-05-06T13:45:25.237Z,28.30
2018-05-06T13:47:52.700Z,28.30
2018-05-06T13:50:20.161Z,28.40
2018-05-06T13:52:47.669Z,28.20
2018-05-06T13:55:15.120Z,28.40
2018-05-06T13:57:42.582Z,28.00
2018-05-06T14:00:10.062Z,28.00
2018-05-06T14:02:37.543Z,28.10
2018-05-06T14:05:06.522Z,28.10
2018-05-06T14:07:33.985Z,28.10
2018-05-06T14:10:01.443Z,28.20
2018-05-06T14:12:28.949Z,28.30
2018-05-06T14:14:56.436Z,28.20
2018-05-06T14:17:23.909Z,28.10
2018-05-06T14:19:51.397Z,27.80
2018-05-06T14:22:19.637Z,27.70
2018-05-06T14:24:47.103Z,27.70
2018-05-06T14:27:14.581Z,27.80
2018-05-06T14:29:42.813Z,27.80
2018-05-06T14:32:10.276Z,27.80
2018-05-06T14:34:37.752Z,27.90
2018-05-06T14:37:05.225Z,27.80
2018-05-06T14:39:32.699Z,27.70
2018-05-06T14:42:00.952Z,27.70
2018-05-06T14:44:28.450Z,27.60
2018-05-06T14:47:07.918Z,27.60
2018-05-06T14:49:35.384Z,27.60
2018-05-06T14:52:02.907Z,27.60
2018-05-06T14:54:30.416Z,27.30
2018-05-06T14:56:57.913Z,27.30
2018-05-06T14:59:25.472Z,27.10
2018-05-06T15:01:52.967Z,27.30
2018-05-06T15:04:20.446Z,27.40
2018-05-06T15:06:47.936Z,27.50
2018-05-06T15:09:15.421Z,27.30
2018-05-06T15:11:42.889Z,27.10
2018-05-06T15:14:10.354Z,27.00
2018-05-06T15:16:37.827Z,27.00
2018-05-06T15:19:05.286Z,26.90
2018-05-06T15:21:32.761Z,27.00
2018-05-06T15:24:00.983Z,26.70
2018-05-06T15:26:28.448Z,26.70
2018-05-06T15:28:55.928Z,26.80
2018-05-06T15:31:23.389Z,26.80
2018-05-06T15:33:51.632Z,26.90
2018-05-06T15:36:19.113Z,26.90
2018-05-06T15:38:46.563Z,26.90
2018-05-06T15:41:14.861Z,26.80
2018-05-06T15:43:42.303Z,26.80
2018-05-06T15:46:09.764Z,26.90
2018-05-06T15:48:37.993Z,27.00
2018-05-06T15:51:05.508Z,27.00
2018-05-06T15:53:33.735Z,26.80
2018-05-06T15:56:01.189Z,26.80
2018-05-06T15:58:28.684Z,26.90
2018-05-06T16:00:56.908Z,26.80
2018-05-06T16:03:36.332Z,26.70
2018-05-06T16:06:03.781Z,26.60
2018-05-06T16:08:31.249Z,26.60
2018-05-06T16:10:58.728Z,26.60
2018-05-06T16:13:26.188Z,26.50
2018-05-06T16:15:53.665Z,26.40
2018-05-06T16:18:21.931Z,26.40
2018-05-06T16:20:49.375Z,26.30
2018-05-06T16:23:16.837Z,26.40
2018-05-06T16:25:44.327Z,26.40
2018-05-06T16:28:11.777Z,26.40
2018-05-06T16:30:40.009Z,26.40
2018-05-06T16:33:07.491Z,26.30
2018-05-06T16:35:34.952Z,26.40
2018-05-06T16:38:03.936Z,26.10
2018-05-06T16:40:31.401Z,26.10
2018-05-06T16:42:58.879Z,26.10
2018-05-06T16:45:27.108Z,25.90
2018-05-06T16:47:54.577Z,25.90
2018-05-06T16:50:23.548Z,25.70
2018-05-06T16:52:51.001Z,25.70
2018-05-06T16:55:18.550Z,25.70
2018-05-06T16:57:46.034Z,25.70
2018-05-06T17:00:13.516Z,25.60
2018-05-06T17:02:40.985Z,25.60
2018-05-06T17:05:09.208Z,25.40
2018-05-06T17:07:36.701Z,25.40
2018-05-06T17:10:05.024Z,25.30
2018-05-06T17:12:32.485Z,25.30
2018-05-06T17:15:00.000Z,25.20
2018-05-06T17:17:27.471Z,25.10
2018-05-06T17:19:55.708Z,25.00
2018-05-06T17:22:23.181Z,25.00
2018-05-06T17:24:50.657Z,24.90
2018-05-06T17:27:18.901Z,24.80
2018-05-06T17:29:46.382Z,24.80
2018-05-06T17:32:14.617Z,24.70
2018-05-06T17:34:42.085Z,24.60
2018-05-06T17:37:09.551Z,24.60
2018-05-06T17:39:37.101Z,24.50
2018-05-06T17:42:04.624Z,24.50
2018-05-06T17:44:32.089Z,24.40
2018-05-06T17:46:59.549Z,24.30
2018-05-06T17:49:27.036Z,24.30
2018-05-06T17:51:54.505Z,24.10
2018-05-06T17:54:22.736Z,23.90
2018-05-06T17:56:50.208Z,23.90
2018-05-06T17:59:17.686Z,23.80
2018-05-06T18:01:45.968Z,23.80
2018-05-06T18:04:13.397Z,23.80
2018-05-06T18:06:40.876Z,23.70
2018-05-06T18:09:11.133Z,23.50
2018-05-06T18:11:38.701Z,23.50
2018-05-06T18:14:08.365Z,23.50
2018-05-06T18:16:36.621Z,23.20
2018-05-06T18:19:07.039Z,23.20
2018-05-06T18:21:35.341Z,23.10
2018-05-06T18:24:02.799Z,23.00
2018-05-06T18:26:31.470Z,22.90
2018-05-06T18:29:02.054Z,22.80
2018-05-06T18:31:30.482Z,22.70
2018-05-06T18:33:58.932Z,22.60
2018-05-06T18:36:27.103Z,22.50
2018-05-06T18:38:54.647Z,22.50
2018-05-06T18:41:22.117Z,22.40
2018-05-06T18:43:49.611Z,22.40
2018-05-06T18:46:19.501Z,22.30
2018-05-06T18:48:48.696Z,22.20
2018-05-06T18:51:16.156Z,22.10
2018-05-06T18:53:44.401Z,22.00
2018-05-06T18:56:13.708Z,21.80
2018-05-06T18:58:41.165Z,21.70
2018-05-06T19:01:08.681Z,21.60
2018-05-06T19:03:36.933Z,21.50
2018-05-06T19:06:08.181Z,21.50
2018-05-06T19:08:37.726Z,21.50
2018-05-06T19:11:06.730Z,21.40
2018-05-06T19:13:34.197Z,21.30
2018-05-06T19:16:06.824Z,21.20
2018-05-06T19:18:34.285Z,21.20
2018-05-06T19:21:06.284Z,20.90
2018-05-06T19:23:34.503Z,20.90
2018-05-06T19:26:02.772Z,20.70
2018-05-06T19:28:31.224Z,20.60
2018-05-06T19:30:58.673Z,20.50
2018-05-06T19:33:26.713Z,20.50
2018-05-06T19:35:55.794Z,20.50
2018-05-06T19:38:24.258Z,20.50
2018-05-06T19:40:55.439Z,20.40
2018-05-06T19:43:24.230Z,20.20
2018-05-06T19:45:52.726Z,20.20
2018-05-06T19:48:21.293Z,20.20
2018-05-06T19:50:52.656Z,20.10
2018-05-06T19:53:20.131Z,19.90
2018-05-06T19:55:48.189Z,19.90
2018-05-06T19:58:16.410Z,19.80
2018-05-06T20:00:45.959Z,19.70
2018-05-06T20:03:14.758Z,19.60
2018-05-06T20:05:43.746Z,19.50
2018-05-06T20:08:11.478Z,19.50
2018-05-06T20:10:39.700Z,19.30
2018-05-06T20:13:07.186Z,19.30
2018-05-06T20:15:34.700Z,19.30
2018-05-06T20:18:02.164Z,19.20
2018-05-06T20:20:31.682Z,19.10
2018-05-06T20:22:59.969Z,19.10
2018-05-06T20:25:29.176Z,19.10
2018-05-06T20:27:58.794Z,19.00
2018-05-06T20:30:26.900Z,18.90
2018-05-06T20:32:55.936Z,18.90
2018-05-06T20:35:23.473Z,18.80
2018-05-06T20:37:51.003Z,18.70
2018-05-06T20:40:20.143Z,18.60
2018-05-06T20:42:48.204Z,18.50
2018-05-06T20:45:15.672Z,18.40
2018-05-06T20:47:43.129Z,18.30
2018-05-06T20:50:10.653Z,18.20
2018-05-06T20:52:38.122Z,18.00
2018-05-06T20:55:05.573Z,17.90
2018-05-06T20:57:33.081Z,17.90
2018-05-06T21:00:00.548Z,17.80
2018-05-06T21:02:28.859Z,17.80
2018-05-06T21:04:56.361Z,17.80
2018-05-06T21:07:23.811Z,17.80
2018-05-06T21:09:51.285Z,17.70
2018-05-06T21:12:18.786Z,17.70
2018-05-06T21:14:46.340Z,17.60
2018-05-06T21:17:13.910Z,17.60
2018-05-06T21:19:41.386Z,17.60
2018-05-06T21:22:08.862Z,17.60
2018-05-06T21:24:36.317Z,17.60
2018-05-06T21:27:03.824Z,17.60
2018-05-06T21:29:31.392Z,17.50
2018-05-06T21:31:58.861Z,17.50
2018-05-06T21:34:26.351Z,17.50
2018-05-06T21:36:53.876Z,17.60
2018-05-06T21:39:22.081Z,17.70
2018-05-06T21:41:50.677Z,17.60
2018-05-06T21:44:18.912Z,17.50
2018-05-06T21:46:46.384Z,17.60
2018-05-06T21:49:13.848Z,17.50
2018-05-06T21:51:41.313Z,17.30
2018-05-06T21:54:08.787Z,17.20
2018-05-06T21:56:37.029Z,17.00
2018-05-06T21:59:05.249Z,16.90
2018-05-06T22:01:32.724Z,16.90
2018-05-06T22:04:00.201Z,16.80
2018-05-06T22:06:28.524Z,16.70
2018-05-06T22:08:56.768Z,16.50
2018-05-06T22:11:24.237Z,16.40
2018-05-06T22:13:51.702Z,16.40
2018-05-06T22:16:19.936Z,16.30
2018-05-06T22:18:47.388Z,16.30
2018-05-06T22:21:14.930Z,16.20
2018-05-06T22:23:42.409Z,16.20
2018-05-06T22:26:09.877Z,16.20
2018-05-06T22:28:37.337Z,16.20
2018-05-06T22:31:04.788Z,16.20
2018-05-06T22:33:32.293Z,16.20
2018-05-06T22:35:59.813Z,16.30
2018-05-06T22:38:28.144Z,16.00
2018-05-06T22:40:55.616Z,16.00
2018-05-06T22:43:23.076Z,15.90
2018-05-06T22:45:50.540Z,15.90
2018-05-06T22:48:19.076Z,15.90
2018-05-06T22:50:46.536Z,15.90
2018-05-06T22:53:14.361Z,16.00
2018-05-06T22:55:41.838Z,15.90
2018-05-06T22:58:10.092Z,15.80
2018-05-06T23:00:37.586Z,15.70
2018-05-06T23:03:05.110Z,15.70
2018-05-06T23:05:32.622Z,15.70
2018-05-06T23:08:00.804Z,15.60
2018-05-06T23:10:28.287Z,15.60
2018-05-06T23:12:55.769Z,15.70
2018-05-06T23:15:23.992Z,15.80
2018-05-06T23:17:51.497Z,15.70
2018-05-06T23:20:18.936Z,15.90
2018-05-06T23:22:46.388Z,15.90
2018-05-06T23:25:13.984Z,15.80
2018-05-06T23:27:42.102Z,15.70
2018-05-06T23:30:09.559Z,15.70
2018-05-06T23:32:37.040Z,15.60
2018-05-06T23:35:04.497Z,15.60
2018-05-06T23:37:31.960Z,15.40
2018-05-06T23:39:59.438Z,15.30
2018-05-06T23:42:27.656Z,15.20
2018-05-06T23:44:55.113Z,15.10
2018-05-06T23:47:22.590Z,15.10
2018-05-06T23:49:50.044Z,15.20
2018-05-06T23:52:17.530Z,15.00
2018-05-06T23:54:45.844Z,14.80
2018-05-06T23:57:13.214Z,14.80
2018-05-06T23:59:40.746Z,14.90
